Terminal Aerodrome Forecast
Issued by NWS

Home | Current Version | Previous Version | Text Only | Print | Product List | Glossary On
Versions: 1 2 3 4 5 6 7 8 9 10 11 12 13 14 15 16 17 18 19 20 21 22 23 24 25
000
FTUS45 KLKN 231128
TAFTPH
TAF
KTPH 231128Z 2312/2412 36009KT P6SM VCSH SCT030 OVC080
      TEMPO 2312/2316 6SM -SHRA BKN018 OVC060
     FM232000 33015G25KT P6SM VCTS OVC070CB
      TEMPO 2322/2401 VRB15G35KT -TSRA SCT020CB BKN040
     FM240100 35012KT P6SM VCSH OVC060
      TEMPO 2401/2404 VRB12G20KT -SHRA BKN040
     FM240400 34008KT P6SM OVC100=

USA.gov is the U.S. government's official web portal to all federal, state and local government web resources and services.